Terminal Aerodrome Forecast
Issued by NWS

Home | Current Version | Previous Version | Text Only | Print | Product List | Glossary On
Versions: 1 2 3 4 5 6 7 8 9 10 11 12 13 14 15 16 17 18 19
000
FTUS43 KIND 072000 AAB
TAFHUF
TAF AMD
KHUF 072026Z 0720/0818 34011KT 6SM BR SCT006 OVC025
      TEMPO 0720/0722 4SM -RA BR BKN006 OVC025
     FM072200 34011KT 4SM BR OVC008
     FM080900 01007KT 3SM BR OVC005
     FM081400 08006KT P6SM OVC012=

USA.gov is the U.S. government's official web portal to all federal, state and local government web resources and services.